Map

Track Data

SID SEASON NUMBER BASIN SUBBASIN NAME ISO_TIME NATURE LAT LON WMO_WIND WMO_PRES WMO_AGENCY TRACK_TYPE DIST2LAND LANDFALL IFLAG USA_AGENCY USA_ATCF_ID USA_LAT USA_LON USA_RECORD USA_STATUS USA_WIND USA_PRES USA_SSHS USA_R34_NE USA_R34_SE USA_R34_SW USA_R34_NW USA_R50_NE USA_R50_SE USA_R50_SW USA_R50_NW USA_R64_NE USA_R64_SE USA_R64_SW USA_R64_NW USA_POCI USA_ROCI USA_RMW USA_EYE TOKYO_LAT TOKYO_LON TOKYO_GRADE TOKYO_WIND TOKYO_PRES TOKYO_R50_DIR TOKYO_R50_LONG TOKYO_R50_SHORT TOKYO_R30_DIR TOKYO_R30_LONG TOKYO_R30_SHORT TOKYO_LAND CMA_LAT CMA_LON CMA_CAT CMA_WIND CMA_PRES HKO_LAT HKO_LON HKO_CAT HKO_WIND HKO_PRES NEWDELHI_LAT NEWDELHI_LON NEWDELHI_GRADE NEWDELHI_WIND NEWDELHI_PRES NEWDELHI_CI NEWDELHI_DP NEWDELHI_POCI REUNION_LAT REUNION_LON REUNION_TYPE REUNION_WIND REUNION_PRES REUNION_TNUM REUNION_CI REUNION_RMW REUNION_R34_NE REUNION_R34_SE REUNION_R34_SW REUNION_R34_NW REUNION_R50_NE REUNION_R50_SE REUNION_R50_SW REUNION_R50_NW REUNION_R64_NE REUNION_R64_SE REUNION_R64_SW REUNION_R64_NW BOM_LAT BOM_LON BOM_TYPE BOM_WIND BOM_PRES BOM_TNUM BOM_CI BOM_RMW BOM_R34_NE BOM_R34_SE BOM_R34_SW BOM_R34_NW BOM_R50_NE BOM_R50_SE BOM_R50_SW BOM_R50_NW BOM_R64_NE BOM_R64_SE BOM_R64_SW BOM_R64_NW BOM_ROCI BOM_POCI BOM_EYE BOM_POS_METHOD BOM_PRES_METHOD NADI_LAT NADI_LON NADI_CAT NADI_WIND NADI_PRES WELLINGTON_LAT WELLINGTON_LON WELLINGTON_WIND WELLINGTON_PRES DS824_LAT DS824_LON DS824_STAGE DS824_WIND DS824_PRES TD9636_LAT TD9636_LON TD9636_STAGE TD9636_WIND TD9636_PRES TD9635_LAT TD9635_LON TD9635_WIND TD9635_PRES TD9635_ROCI NEUMANN_LAT NEUMANN_LON NEUMANN_CLASS NEUMANN_WIND NEUMANN_PRES MLC_LAT MLC_LON MLC_CLASS MLC_WIND MLC_PRES USA_GUST BOM_GUST BOM_GUST_PER REUNION_GUST REUNION_GUST_PER USA_SEAHGT USA_SEARAD_NE USA_SEARAD_SE USA_SEARAD_SW USA_SEARAD_NW STORM_SPEED STORM_DIR
1881194N21090 1881 22 NI BB NOT_NAMED 1881-07-13 00:00:00 TS 20.5000 90.2000 main 145 145 _________O____ -1 20.5000 90.2000 TC 30 2 271
1881194N21090 1881 22 NI BB NOT_NAMED 1881-07-13 03:00:00 TS 20.5017 90.1000 main 145 145 _________PO___ -1 20.5025 90.0500 TC 30 20.5000 90.2000 1 2 268
1881194N21090 1881 22 NI BB NOT_NAMED 1881-07-13 06:00:00 TS 20.4938 89.9606 main 145 140 _________OP___ -1 20.5000 89.9000 TC 30 20.4844 90.0515 1 3 266
1881194N21090 1881 22 NI BB NOT_NAMED 1881-07-13 09:00:00 TS 20.4850 89.8153 main 140 137 _________PP___ -1 20.4925 89.7500 TC 30 20.4751 89.9024 1 3 269
1881194N21090 1881 22 NI BB NOT_NAMED 1881-07-13 12:00:00 TS 20.4891 89.6760 main 137 129 _________OP___ -1 20.5000 89.6000 TC 30 20.4781 89.7521 1 3 278
1881194N21090 1881 22 NI BB NOT_NAMED 1881-07-13 15:00:00 TS 20.5213 89.5213 main 129 116 _________PO___ -1 20.5425 89.4425 TC 30 20.5000 89.6000 1 3 286
1881194N21090 1881 22 NI BB NOT_NAMED 1881-07-13 18:00:00 TS 20.5719 89.3738 main 116 112 _________OP___ -1 20.6000 89.3000 TC 30 20.5438 89.4476 1 3 292
1881194N21090 1881 22 NI BB NOT_NAMED 1881-07-13 21:00:00 TS 20.6288 89.2413 main 112 100 _________PP___ -1 20.6575 89.1775 TC 30 20.6000 89.3051 1 2 296
1881194N21090 1881 22 NI BB NOT_NAMED 1881-07-14 00:00:00 TS 20.6781 89.1425 main 100 100 _________OP___ -1 20.7000 89.1000 TC 30 20.6563 89.1851 1 2 298
1881194N21090 1881 22 NI BB NOT_NAMED 1881-07-14 03:00:00 TS 20.7037 89.0925 main 100 100 _________PO___ -1 20.7075 89.0850 TC 30 20.7000 89.1000 1 1 295
1881194N21090 1881 22 NI BB NOT_NAMED 1881-07-14 06:00:00 TS 20.7072 89.0820 main 100 100 _________OP___ -1 20.7000 89.1000 TC 30 20.7143 89.0640 1 0 0
1881194N21090 1881 22 NI BB NOT_NAMED 1881-07-14 09:00:00 TS 20.7075 89.0812 main 100 100 _________PP___ -1 20.7000 89.1000 TC 30 20.7149 89.0624 1 0 0
1881194N21090 1881 22 NI BB NOT_NAMED 1881-07-14 12:00:00 TS 20.7040 89.0898 main 100 100 _________OP___ -1 20.7000 89.1000 TC 30 20.7081 89.0797 1 0 0
1881194N21090 1881 22 NI BB NOT_NAMED 1881-07-14 15:00:00 TS 20.7000 89.1000 main 100 100 _________PO___ -1 20.7000 89.1000 TC 30 20.7000 89.1000 1 0 0
1881194N21090 1881 22 NI BB NOT_NAMED 1881-07-14 18:00:00 TS 20.7000 89.1000 main 100 100 _________OP___ -1 20.7000 89.1000 TC 30 20.7000 89.1000 1 0 0
1881194N21090 1881 22 NI BB NOT_NAMED 1881-07-14 21:00:00 TS 20.7000 89.1000 main 100 100 _________PP___ -1 20.7000 89.1000 TC 30 20.7000 89.1000 1 0 0
1881194N21090 1881 22 NI BB NOT_NAMED 1881-07-15 00:00:00 TS 20.7000 89.1000 main 100 100 _________OP___ -1 20.7000 89.1000 TC 30 20.7000 89.1000 1 0 0
1881194N21090 1881 22 NI BB NOT_NAMED 1881-07-15 03:00:00 TS 20.7000 89.1000 main 100 100 _________PO___ -1 20.7000 89.1000 TC 30 20.7000 89.1000 1 0 0
1881194N21090 1881 22 NI BB NOT_NAMED 1881-07-15 06:00:00 TS 20.7000 89.1000 main 100 100 _________OP___ -1 20.7000 89.1000 TC 30 20.7000 89.1000 1 0 0
1881194N21090 1881 22 NI BB NOT_NAMED 1881-07-15 09:00:00 TS 20.7000 89.1000 main 100 100 _________PP___ -1 20.7000 89.1000 TC 30 20.7000 89.1000 1 0 0
1881194N21090 1881 22 NI BB NOT_NAMED 1881-07-15 12:00:00 TS 20.7000 89.1000 main 100 100 _________OP___ -1 20.7000 89.1000 TC 30 20.7000 89.1000 1 0 0
1881194N21090 1881 22 NI BB NOT_NAMED 1881-07-15 15:00:00 TS 20.7000 89.1000 main 100 100 _________PO___ -1 20.7000 89.1000 TC 30 20.7000 89.1000 1 1 113
1881194N21090 1881 22 NI BB NOT_NAMED 1881-07-15 18:00:00 TS 20.6622 89.1901 main 101 101 _________OP___ -1 20.7000 89.1000 TC 30 20.6245 89.2803 1 2 114
1881194N21090 1881 22 NI BB NOT_NAMED 1881-07-15 21:00:00 TS 20.6036 89.3297 main 113 113 _________PP___ -1 20.6468 89.2268 TC 30 20.5604 89.4326 1 1 112
1881194N21090 1881 22 NI BB NOT_NAMED 1881-07-16 00:00:00 TS 20.6331 89.2594 main 113 89 _________OP___ -1 20.7000 89.1000 TC 30 20.5662 89.4188 1 6 294
1881194N21090 1881 22 NI BB NOT_NAMED 1881-07-16 03:00:00 TS 20.8334 88.7795 main 90 49 _________PO___ -1 20.9668 88.4591 TC 30 20.7000 89.1000 1 14 295
1881194N21090 1881 22 NI BB NOT_NAMED 1881-07-16 06:00:00 TS 21.2425 87.8565 main 54 0 _________OP___ -1 21.4000 87.4000 TC 30 21.0850 88.3129 1 22 296
1881194N21090 1881 22 NI BB NOT_NAMED 1881-07-16 09:00:00 TS 21.7932 86.6375 main 0 0 _________PP___ -1 22.0037 86.0630 TC 30 21.5827 87.2119 1 26 294
1881194N21090 1881 22 NI BB NOT_NAMED 1881-07-16 12:00:00 TS 22.2941 85.2644 main 0 0 _________OP___ -1 22.5000 84.6000 TC 30 22.0882 85.9288 1 26 287
1881194N21090 1881 22 NI BB NOT_NAMED 1881-07-16 15:00:00 TS 22.5295 83.9511 main 0 0 _________PO___ -1 22.5590 83.3022 TC 30 22.5000 84.6000 1 24 277
1881194N21090 1881 22 NI BB NOT_NAMED 1881-07-16 18:00:00 TS 22.5853 82.6867 main 0 0 _________OP___ -1 22.5000 82.1000 TC 30 22.6706 83.2733 1 24 274
1881194N21090 1881 22 NI BB NOT_NAMED 1881-07-16 21:00:00 TS 22.6835 81.4019 main 0 0 _________PP___ -1 22.6282 80.8434 TC 30 22.7387 81.9604 1 22 275
1881194N21090 1881 22 NI BB NOT_NAMED 1881-07-17 00:00:00 TS 22.7808 80.3464 main 0 0 _________OP___ -1 22.8000 79.9000 TC 30 22.7616 80.7927 1 16 277
1881194N21090 1881 22 NI BB NOT_NAMED 1881-07-17 03:00:00 TS 22.8706 79.7285 main 0 0 _________PO___ -1 22.9412 79.5571 TC 30 22.8000 79.9000 1 8 286
1881194N21090 1881 22 NI BB NOT_NAMED 1881-07-17 06:00:00 TS 23.0143 79.4705 main 0 0 _________OP___ -1 23.1000 79.5000 TC 30 22.9285 79.4410 1 5 309
1881194N21090 1881 22 NI BB NOT_NAMED 1881-07-17 09:00:00 TS 23.1881 79.3032 main 0 0 _________PP___ -1 23.2849 79.3499 TC 30 23.0913 79.2565 1 4 328
1881194N21090 1881 22 NI BB NOT_NAMED 1881-07-17 12:00:00 TS 23.3918 79.2094 main 0 0 _________OP___ -1 23.5000 79.2000 TC 30 23.2837 79.2189 1 5 337
1881194N21090 1881 22 NI BB NOT_NAMED 1881-07-17 15:00:00 TS 23.6213 79.1037 main 0 0 _________PO___ -1 23.7425 79.0075 TC 30 23.5000 79.2000 1 5 334
1881194N21090 1881 22 NI BB NOT_NAMED 1881-07-17 18:00:00 TS 23.8484 78.9699 main 0 0 _________OP___ -1 24.0000 78.8000 TC 30 23.7347 79.0973 1 6 328
1881194N21090 1881 22 NI BB NOT_NAMED 1881-07-17 21:00:00 TS 24.0906 78.7860 main 0 0 _________PP___ -1 24.2525 78.5976 TC 30 23.9827 78.9116 1 6 323
1881194N21090 1881 22 NI BB NOT_NAMED 1881-07-18 00:00:00 TS 24.3263 78.5801 main 0 0 _________OP___ -1 24.5000 78.4000 TC 30 24.2394 78.6701 1 5 319
1881194N21090 1881 22 NI BB NOT_NAMED 1881-07-18 03:00:00 NR 24.5000 78.4000 main 0 __________O___ -1 TC 24.5000 78.4000 1 5 317

About IBTrACS Database

This database is a web-friendly format of International Best Track Archive for Climate Stewardship (IBTrACS), a global best track data archive curated by NOAA dating back to 1842.

Updated: 2021-12-01